Time;durP1;ratioP1;P1;durP2;ratioP2;P2;SDS_P1;SDS_P2;PMS_P1;PMS_P2;Temp;Humidity;BMP_temperature;BMP_pressure;BME280_temperature;BME280_humidity;BME280_pressure;Samples;Min_cycle;Max_cycle;Signal;HPM_P1;HPM_P2
2023/07/11 00:01:36;;;;;;;;;;;;;;;21.53;36.10;100947.66;4939919;28;98148;-70
2023/07/11 00:04:03;;;;;;;;;;;;;;;21.50;36.20;100945.59;4949087;27;100804;-70
2023/07/11 00:06:29;;;;;;;;;;;;;;;21.47;36.11;100948.97;4931594;27;98345;-70
2023/07/11 00:08:55;;;;;;;;;;;;;;;21.47;36.08;100953.66;4947259;28;98493;-71
2023/07/11 00:11:22;;;;;;;;;;;;;;;21.44;36.17;100951.56;4947319;28;98674;-70
2023/07/11 00:13:49;;;;;;;;;;;;;;;21.42;36.16;100957.41;4949108;28;98143;-70
2023/07/11 00:16:16;;;;;;;;;;;;;;;21.41;36.17;100961.25;4935133;28;98308;-70
2023/07/11 00:18:43;;;;;;;;;;;;;;;21.40;36.08;100956.09;4937578;27;99942;-70
2023/07/11 00:21:10;;;;;;;;;;;;;;;21.38;36.19;100961.09;4932466;27;98496;-75
2023/07/11 00:23:36;;;;;;;;;;;;;;;21.36;36.19;100961.44;4934237;27;99625;-70
2023/07/11 00:26:03;;;;;;;;;;;;;;;21.34;36.22;100958.22;4923709;28;98181;-74
2023/07/11 00:28:29;;;;;;;;;;;;;;;21.33;36.24;100953.88;4934217;28;98068;-75
2023/07/11 00:30:56;;;;;;;;;;;;;;;21.29;36.17;100956.41;4932490;27;97921;-70
2023/07/11 00:33:23;;;;;;;;;;;;;;;21.23;36.30;100959.69;4945453;28;98346;-70
2023/07/11 00:35:53;;;;;;;;;;;;;;;21.18;36.38;100951.63;4931190;28;98200;-75
2023/07/11 00:38:20;;;;;;;;;;;;;;;21.12;36.20;100958.44;4950015;27;98106;-70
2023/07/11 00:40:48;;;;;;;;;;;;;;;21.08;36.31;100956.31;4934282;27;98129;-70
2023/07/11 00:43:16;;;;;;;;;;;;;;;21.06;36.40;100955.03;4927510;28;98329;-69
2023/07/11 00:46:11;;;;;;;;;;;;;;;21.01;36.33;100958.75;4935039;27;97971;-75
2023/07/11 00:48:39;;;;;;;;;;;;;;;20.99;36.29;100952.81;4945858;27;98142;-74
2023/07/11 00:51:10;;;;;;;;;;;;;;;20.93;36.32;100945.09;4930051;28;98202;-70
2023/07/11 00:53:37;;;;;;;;;;;;;;;20.90;36.32;100959.44;4945267;27;97921;-74
2023/07/11 00:56:04;;;;;;;;;;;;;;;20.86;36.39;100959.25;4922628;28;99728;-70
2023/07/11 00:58:30;;;;;;;;;;;;;;;20.83;36.36;100951.72;4946175;28;98074;-74
2023/07/11 01:00:57;;;;;;;;;;;;;;;20.80;36.49;100952.38;4929872;27;98228;-74
2023/07/11 01:03:25;;;;;;;;;;;;;;;20.77;36.45;100953.00;4930020;28;98280;-70
2023/07/11 01:05:53;;;;;;;;;;;;;;;20.73;36.42;100947.38;4944748;28;99133;-70
2023/07/11 01:08:20;;;;;;;;;;;;;;;20.66;36.43;100948.97;4930744;27;98037;-70
2023/07/11 01:10:47;;;;;;;;;;;;;;;20.60;36.42;100942.88;4929330;28;99635;-74
2023/07/11 01:13:14;;;;;;;;;;;;;;;20.55;36.36;100946.59;4945047;27;98233;-74
2023/07/11 01:15:40;;;;;;;;;;;;;;;20.48;36.53;100935.28;4930388;27;98041;-69
2023/07/11 01:18:07;;;;;;;;;;;;;;;20.45;36.45;100946.88;4942870;28;98948;-74
2023/07/11 01:20:33;;;;;;;;;;;;;;;20.39;36.44;100939.13;4946992;28;97990;-74
2023/07/11 01:23:00;;;;;;;;;;;;;;;20.32;36.49;100939.63;4931619;28;98061;-74
2023/07/11 01:25:26;;;;;;;;;;;;;;;20.27;36.62;100937.03;4945415;28;99283;-69
2023/07/11 01:27:53;;;;;;;;;;;;;;;20.20;36.64;100929.31;4929260;27;98182;-74
2023/07/11 01:30:21;;;;;;;;;;;;;;;20.14;36.55;100938.00;4931015;28;98190;-74
2023/07/11 01:32:47;;;;;;;;;;;;;;;20.06;36.70;100942.34;4932915;28;98281;-74
2023/07/11 01:35:14;;;;;;;;;;;;;;;19.99;36.68;100936.53;4928598;28;98067;-74
2023/07/11 01:37:40;;;;;;;;;;;;;;;19.93;36.66;100938.63;4934189;28;98272;-69
2023/07/11 01:40:09;;;;;;;;;;;;;;;19.87;36.68;100945.34;4934398;28;99593;-69
2023/07/11 01:42:35;;;;;;;;;;;;;;;19.80;36.63;100939.53;4937988;27;99884;-70
2023/07/11 01:45:02;;;;;;;;;;;;;;;19.76;36.72;100933.88;4924138;27;97998;-69
2023/07/11 01:47:29;;;;;;;;;;;;;;;19.72;36.84;100935.66;4928527;28;99473;-69
2023/07/11 01:49:55;;;;;;;;;;;;;;;19.68;36.79;100934.66;4944644;28;97982;-70
2023/07/11 01:52:22;;;;;;;;;;;;;;;19.65;36.94;100934.50;4924461;28;99711;-74
2023/07/11 01:54:50;;;;;;;;;;;;;;;19.61;36.80;100934.31;4928176;27;98214;-70
2023/07/11 01:57:17;;;;;;;;;;;;;;;19.59;36.70;100936.56;4925768;28;98275;-69
2023/07/11 01:59:43;;;;;;;;;;;;;;;19.56;36.85;100934.44;4927858;28;97962;-74
2023/07/11 02:02:10;;;;;;;;;;;;;;;19.53;36.82;100927.69;4928419;27;100646;-74
2023/07/11 02:04:37;;;;;;;;;;;;;;;19.50;36.70;100925.59;4931149;28;99832;-70
2023/07/11 02:07:04;;;;;;;;;;;;;;;19.49;36.84;100934.09;4926072;28;98773;-74
2023/07/11 02:09:31;;;;;;;;;;;;;;;19.46;36.75;100942.94;4925867;28;98089;-73
2023/07/11 02:11:57;;;;;;;;;;;;;;;19.44;36.82;100939.72;4939249;27;98052;-69
2023/07/11 02:14:23;;;;;;;;;;;;;;;19.42;36.95;100941.97;4930057;28;98533;-74
2023/07/11 02:16:51;;;;;;;;;;;;;;;19.45;36.87;100931.19;4928397;28;98158;-74
2023/07/11 02:19:18;;;;;;;;;;;;;;;19.50;36.95;100927.53;4944063;27;98196;-76
2023/07/11 02:21:44;;;;;;;;;;;;;;;19.55;36.78;100930.09;4931289;27;98218;-70
2023/07/11 02:24:11;;;;;;;;;;;;;;;19.60;36.73;100927.22;4904941;27;98093;-75
2023/07/11 02:26:38;;;;;;;;;;;;;;;19.62;36.92;100930.50;4930412;28;98167;-75
2023/07/11 02:29:04;;;;;;;;;;;;;;;19.64;36.84;100930.16;4942357;28;98053;-70
2023/07/11 02:31:32;;;;;;;;;;;;;;;19.66;36.87;100927.94;4943169;28;98166;-74
2023/07/11 02:33:58;;;;;;;;;;;;;;;19.64;36.95;100933.69;4928224;28;98127;-75
2023/07/11 02:36:25;;;;;;;;;;;;;;;19.60;36.99;100935.41;4929457;28;99198;-70
2023/07/11 02:38:51;;;;;;;;;;;;;;;19.55;36.85;100933.66;4944647;28;97958;-75
2023/07/11 02:41:18;;;;;;;;;;;;;;;19.50;37.01;100931.06;4929277;27;98129;-70
2023/07/11 02:43:45;;;;;;;;;;;;;;;19.47;37.07;100937.16;4941949;27;98298;-74
2023/07/11 02:46:13;;;;;;;;;;;;;;;19.45;37.17;100933.91;4938522;27;101741;-70
2023/07/11 02:48:40;;;;;;;;;;;;;;;19.43;36.95;100938.91;4927404;27;98435;-70
2023/07/11 02:51:07;;;;;;;;;;;;;;;19.38;37.11;100941.78;4926987;28;100789;-70
2023/07/11 02:53:33;;;;;;;;;;;;;;;19.34;36.94;100944.34;4947570;28;98424;-71
2023/07/11 02:56:00;;;;;;;;;;;;;;;19.32;37.00;100941.09;4940815;28;98064;-74
2023/07/11 02:58:26;;;;;;;;;;;;;;;19.31;37.17;100946.91;4927866;28;97960;-71
2023/07/11 03:00:55;;;;;;;;;;;;;;;19.30;37.24;100943.34;4920427;27;97880;-71
2023/07/11 03:03:22;;;;;;;;;;;;;;;19.29;37.05;100940.91;4930772;28;98460;-71
2023/07/11 03:05:49;;;;;;;;;;;;;;;19.29;37.04;100940.91;4929968;28;97994;-75
2023/07/11 03:08:17;;;;;;;;;;;;;;;19.28;37.12;100942.06;4930395;28;99754;-70
2023/07/11 03:10:45;;;;;;;;;;;;;;;19.25;36.97;100940.75;4925263;27;97978;-74
2023/07/11 03:13:12;;;;;;;;;;;;;;;19.22;37.04;100943.31;4925740;28;99171;-71
2023/07/11 03:15:39;;;;;;;;;;;;;;;19.19;36.95;100938.47;4924191;27;98146;-75
2023/07/11 03:18:06;;;;;;;;;;;;;;;19.18;37.02;100947.78;4942162;28;101737;-70
2023/07/11 03:20:40;;;;;;;;;;;;;;;19.16;37.14;100947.28;4921610;28;98250;-74
2023/07/11 03:23:07;;;;;;;;;;;;;;;19.10;36.93;100950.16;4931362;28;98323;-74
2023/07/11 03:25:35;;;;;;;;;;;;;;;19.09;37.00;100951.25;4923691;28;98059;-74
2023/07/11 03:28:05;;;;;;;;;;;;;;;19.07;37.14;100958.19;4931837;27;97950;-74
2023/07/11 03:30:33;;;;;;;;;;;;;;;19.05;37.07;100963.13;4947311;28;99643;-71
2023/07/11 03:33:00;;;;;;;;;;;;;;;19.03;37.06;100959.94;4927732;28;98092;-74
2023/07/11 03:35:26;;;;;;;;;;;;;;;19.03;37.15;100959.94;4940452;27;99253;-70
2023/07/11 03:37:53;;;;;;;;;;;;;;;19.03;37.15;100959.94;4926008;28;98079;-75
2023/07/11 03:40:19;;;;;;;;;;;;;;;19.03;36.99;100960.72;4929365;28;99986;-75
2023/07/11 03:42:46;;;;;;;;;;;;;;;19.06;36.98;100957.38;4930442;27;97886;-70
2023/07/11 03:45:12;;;;;;;;;;;;;;;19.09;37.06;100959.47;4945481;28;99710;-70
2023/07/11 03:47:38;;;;;;;;;;;;;;;19.10;36.80;100963.03;4924909;28;98161;-70
2023/07/11 03:50:05;;;;;;;;;;;;;;;19.11;36.96;100962.69;4929017;28;98052;-71
2023/07/11 03:52:32;;;;;;;;;;;;;;;19.12;37.11;100966.22;4944660;27;99143;-70
2023/07/11 03:54:59;;;;;;;;;;;;;;;19.15;37.00;100957.41;4931142;27;98124;-74
2023/07/11 03:57:25;;;;;;;;;;;;;;;19.19;36.99;100960.34;4927358;28;98144;-74
2023/07/11 03:59:52;;;;;;;;;;;;;;;19.24;37.07;100963.72;4928171;28;98507;-74
2023/07/11 04:02:18;;;;;;;;;;;;;;;19.29;36.84;100960.06;4931160;27;100134;-71
2023/07/11 04:04:46;;;;;;;;;;;;;;;19.30;36.80;100965.22;4930817;28;98300;-74
2023/07/11 04:07:13;;;;;;;;;;;;;;;19.31;37.01;100969.56;4933632;28;98313;-75
2023/07/11 04:09:42;;;;;;;;;;;;;;;19.31;36.90;100972.28;4913479;28;98073;-71
2023/07/11 04:12:09;;;;;;;;;;;;;;;19.32;36.86;100975.81;4927343;28;97942;-71
2023/07/11 04:14:35;;;;;;;;;;;;;;;19.32;36.81;100970.38;4925955;28;97948;-73
2023/07/11 04:17:02;;;;;;;;;;;;;;;19.32;37.07;100981.28;4910281;28;99388;-74
2023/07/11 04:19:29;;;;;;;;;;;;;;;19.33;36.99;100980.97;4912423;28;97937;-70
2023/07/11 04:21:56;;;;;;;;;;;;;;;19.36;36.74;100982.28;4911965;28;97969;-70
2023/07/11 04:24:23;;;;;;;;;;;;;;;19.40;36.84;100977.78;4927332;28;98284;-70
2023/07/11 04:26:49;;;;;;;;;;;;;;;19.42;36.88;100975.56;4915048;28;98054;-74
2023/07/11 04:29:16;;;;;;;;;;;;;;;19.46;36.87;100978.47;4906733;28;98344;-70
2023/07/11 04:31:44;;;;;;;;;;;;;;;19.48;36.92;100977.03;4924992;28;98183;-70
2023/07/11 04:34:11;;;;;;;;;;;;;;;19.50;36.92;100976.72;4937249;28;98049;-74
2023/07/11 04:36:38;;;;;;;;;;;;;;;19.52;36.97;100979.94;4926388;28;98089;-75
2023/07/11 04:39:04;;;;;;;;;;;;;;;19.56;36.77;100978.19;4919196;28;97994;-75
2023/07/11 04:41:31;;;;;;;;;;;;;;;19.63;36.96;100977.78;4929193;28;98442;-70
2023/07/11 04:43:57;;;;;;;;;;;;;;;19.68;36.84;100980.34;4926967;28;99535;-74
2023/07/11 04:46:25;;;;;;;;;;;;;;;19.76;36.85;100982.31;4929026;28;98124;-71
2023/07/11 04:48:52;;;;;;;;;;;;;;;19.83;36.92;100972.53;4912009;28;99385;-71
2023/07/11 04:51:19;;;;;;;;;;;;;;;19.90;36.88;100974.81;4928243;28;98003;-74
2023/07/11 04:53:45;;;;;;;;;;;;;;;19.97;36.74;100966.16;4929254;28;98322;-71
2023/07/11 04:56:12;;;;;;;;;;;;;;;20.02;36.73;100961.31;4928686;28;98902;-74
2023/07/11 04:58:39;;;;;;;;;;;;;;;20.09;36.83;100972.59;4942575;28;98095;-71
2023/07/11 05:01:11;;;;;;;;;;;;;;;20.16;36.68;100971.31;4912536;28;97995;-71
2023/07/11 05:03:37;;;;;;;;;;;;;;;20.25;36.59;100975.69;4916130;28;98185;-74
2023/07/11 05:06:04;;;;;;;;;;;;;;;20.35;36.61;100975.34;4922536;28;98145;-75
2023/07/11 05:08:30;;;;;;;;;;;;;;;20.45;36.70;100973.44;4912162;28;98331;-74
2023/07/11 05:11:04;;;;;;;;;;;;;;;20.55;36.65;100970.41;4911495;28;98039;-75
2023/07/11 05:13:34;;;;;;;;;;;;;;;20.65;36.54;100967.34;4917372;28;99739;-74
2023/07/11 05:16:04;;;;;;;;;;;;;;;20.80;36.40;100971.53;4926659;28;98625;-75
2023/07/11 05:18:30;;;;;;;;;;;;;;;20.97;36.52;100966.03;4943093;28;98550;-75
2023/07/11 05:20:58;;;;;;;;;;;;;;;21.11;36.35;100967.78;4912512;28;98244;-71
2023/07/11 05:23:25;;;;;;;;;;;;;;;21.28;36.16;100959.50;4911913;28;97941;-75
2023/07/11 05:25:54;;;;;;;;;;;;;;;21.47;36.13;100962.69;4908141;28;100116;-72
2023/07/11 05:28:21;;;;;;;;;;;;;;;21.67;36.05;100963.88;4930104;28;98157;-75
2023/07/11 05:30:47;;;;;;;;;;;;;;;21.81;36.06;100955.41;4927240;28;98433;-75
2023/07/11 05:33:13;;;;;;;;;;;;;;;22.03;35.89;100954.31;4926273;28;98200;-75
2023/07/11 05:35:47;;;;;;;;;;;;;;;22.16;35.83;100952.50;4924288;28;98188;-72
2023/07/11 05:38:17;;;;;;;;;;;;;;;22.33;35.88;100938.66;4910149;28;98557;-71
2023/07/11 05:40:45;;;;;;;;;;;;;;;22.58;35.54;100947.81;4922224;28;98221;-75
2023/07/11 05:43:12;;;;;;;;;;;;;;;22.78;35.76;100951.66;4928465;28;99254;-75
2023/07/11 05:45:38;;;;;;;;;;;;;;;22.99;35.71;100957.94;4929407;28;98142;-74
2023/07/11 05:48:06;;;;;;;;;;;;;;;23.18;35.51;100953.84;4922622;28;98189;-73
2023/07/11 05:50:33;;;;;;;;;;;;;;;23.38;35.40;100952.16;4909111;28;101191;-71
2023/07/11 05:52:59;;;;;;;;;;;;;;;23.60;35.63;100956.44;4924994;28;98164;-72
2023/07/11 05:55:25;;;;;;;;;;;;;;;23.89;35.06;100949.91;4899797;28;98066;-72
2023/07/11 05:57:52;;;;;;;;;;;;;;;24.23;35.19;100945.84;4919729;28;98247;-75
2023/07/11 06:00:19;;;;;;;;;;;;;;;24.62;35.10;100947.00;4926208;28;98178;-75
2023/07/11 06:02:46;;;;;;;;;;;;;;;24.99;35.09;100941.28;4911980;28;99591;-75
2023/07/11 06:05:12;;;;;;;;;;;;;;;25.34;34.95;100935.94;4918129;28;98354;-71
2023/07/11 06:07:41;;;;;;;;;;;;;;;25.67;35.03;100943.03;4916835;28;98336;-72
2023/07/11 06:10:08;;;;;;;;;;;;;;;26.05;34.98;100938.78;4942816;28;98079;-73
2023/07/11 06:12:35;;;;;;;;;;;;;;;26.52;34.91;100935.06;4921376;28;98255;-75
2023/07/11 06:15:02;;;;;;;;;;;;;;;27.11;34.44;100942.94;4918306;28;99742;-75
2023/07/11 06:17:29;;;;;;;;;;;;;;;28.57;33.62;100936.03;4926184;28;98511;-75
2023/07/11 06:19:55;;;;;;;;;;;;;;;28.92;33.69;100943.13;4939004;28;98389;-72
2023/07/11 06:22:22;;;;;;;;;;;;;;;29.40;33.19;100945.97;4942811;28;99374;-75
2023/07/11 06:24:48;;;;;;;;;;;;;;;29.44;33.64;100938.47;4923308;28;100305;-76
2023/07/11 06:27:15;;;;;;;;;;;;;;;30.06;33.44;100941.31;4922460;28;98908;-75
2023/07/11 06:29:41;;;;;;;;;;;;;;;30.36;33.38;100940.25;4927131;28;98508;-75
2023/07/11 06:32:08;;;;;;;;;;;;;;;30.79;33.42;100932.88;4925223;28;98107;-73
2023/07/11 06:34:35;;;;;;;;;;;;;;;31.15;33.40;100932.91;4921003;28;98054;-76
2023/07/11 06:37:02;;;;;;;;;;;;;;;31.88;33.20;100935.31;4926766;28;99173;-73
2023/07/11 06:39:28;;;;;;;;;;;;;;;32.80;32.60;100935.31;4941669;28;97920;-76
2023/07/11 06:41:54;;;;;;;;;;;;;;;33.23;32.21;100933.03;4918068;28;99746;-73
2023/07/11 06:44:21;;;;;;;;;;;;;;;33.83;31.77;100925.31;4925592;28;99812;-76
2023/07/11 06:46:47;;;;;;;;;;;;;;;34.00;31.83;100926.38;4925763;28;98401;-73
2023/07/11 06:49:14;;;;;;;;;;;;;;;34.22;31.96;100921.28;4940451;28;98112;-72
2023/07/11 06:51:41;;;;;;;;;;;;;;;33.96;32.12;100918.78;4958593;28;98078;-75
2023/07/11 06:54:07;;;;;;;;;;;;;;;33.87;32.61;100915.66;4940669;28;98119;-72
2023/07/11 06:56:34;;;;;;;;;;;;;;;33.80;32.69;100920.53;4938584;28;98537;-72
2023/07/11 06:59:01;;;;;;;;;;;;;;;33.72;32.74;100920.63;4925656;28;100159;-72
2023/07/11 07:01:28;;;;;;;;;;;;;;;33.87;32.33;100923.25;4936932;28;97894;-73
2023/07/11 07:03:54;;;;;;;;;;;;;;;34.12;32.70;100911.84;4927086;28;98222;-75
2023/07/11 07:06:21;;;;;;;;;;;;;;;34.41;32.10;100910.25;4925647;27;98083;-75
2023/07/11 07:08:48;;;;;;;;;;;;;;;34.72;32.20;100917.84;4927291;27;98141;-77
2023/07/11 07:11:16;;;;;;;;;;;;;;;34.96;32.10;100911.06;4947498;28;98451;-79
2023/07/11 07:13:49;;;;;;;;;;;;;;;35.26;31.83;100915.81;4931476;27;98168;-78
2023/07/11 07:16:15;;;;;;;;;;;;;;;35.42;31.89;100906.72;4922366;28;98388;-80
2023/07/11 07:18:43;;;;;;;;;;;;;;;35.49;31.87;100903.81;4928837;27;97999;-78
2023/07/11 07:21:11;;;;;;;;;;;;;;;35.70;31.88;100908.22;4923548;28;98242;-78
2023/07/11 07:23:38;;;;;;;;;;;;;;;35.96;31.88;100898.13;4928552;27;98014;-82
2023/07/11 07:26:05;;;;;;;;;;;;;;;36.29;31.61;100898.25;4926585;28;98411;-79
2023/07/11 07:28:33;;;;;;;;;;;;;;;36.66;31.32;100899.03;4931751;27;99524;-78
2023/07/11 07:31:01;;;;;;;;;;;;;;;36.91;30.89;100901.25;4929034;27;99912;-81
2023/07/11 07:33:27;;;;;;;;;;;;;;;37.12;31.28;100897.94;4931988;27;98046;-77
2023/07/11 07:36:03;;;;;;;;;;;;;;;37.27;31.56;100887.13;4929569;28;99052;-78
2023/07/11 07:38:29;;;;;;;;;;;;;;;37.48;31.10;100886.56;4931816;28;98397;-81
2023/07/11 07:40:59;;;;;;;;;;;;;;;37.81;30.92;100886.50;4928594;28;98629;-78
2023/07/11 07:43:27;;;;;;;;;;;;;;;38.18;31.03;100879.38;4930299;27;97964;-83
2023/07/11 07:45:54;;;;;;;;;;;;;;;38.39;30.76;100882.81;4929321;27;98015;-82
2023/07/11 07:48:22;;;;;;;;;;;;;;;38.49;31.02;100878.88;4926256;27;97877;-77
2023/07/11 07:50:49;;;;;;;;;;;;;;;38.50;30.91;100878.41;4943678;27;99549;-82
2023/07/11 07:53:17;;;;;;;;;;;;;;;39.10;30.67;100877.69;4942287;27;98148;-81
2023/07/11 07:55:44;;;;;;;;;;;;;;;39.74;30.29;100863.41;4928186;28;98428;-81
2023/07/11 07:58:13;;;;;;;;;;;;;;;40.23;29.81;100869.19;4935178;27;98752;-77
2023/07/11 08:00:40;;;;;;;;;;;;;;;40.78;29.52;100871.44;4928350;27;98081;-76
2023/07/11 08:03:09;;;;;;;;;;;;;;;39.97;30.44;100865.75;4934216;27;100591;-76
2023/07/11 08:05:37;;;;;;;;;;;;;;;38.61;31.33;100854.78;4950755;28;98446;-80
2023/07/11 08:08:04;;;;;;;;;;;;;;;37.03;32.58;100839.59;4948208;28;98021;-74
2023/07/11 08:10:33;;;;;;;;;;;;;;;35.90;33.50;100836.13;4930167;27;98064;-78
2023/07/11 08:13:00;;;;;;;;;;;;;;;38.02;30.80;100835.25;4934193;27;98402;-81
2023/07/11 08:15:29;;;;;;;;;;;;;;;39.30;30.45;100837.19;4923640;27;98302;-77
2023/07/11 08:17:56;;;;;;;;;;;;;;;40.79;29.42;100841.94;4949008;28;99329;-81
2023/07/11 08:20:24;;;;;;;;;;;;;;;41.95;28.45;100835.69;4933557;28;98193;-74
2023/07/11 08:22:54;;;;;;;;;;;;;;;42.99;27.93;100839.91;4932151;27;98115;-74
2023/07/11 08:25:21;;;;;;;;;;;;;;;43.99;27.77;100834.63;4929708;28;98041;-72
2023/07/11 08:27:48;;;;;;;;;;;;;;;44.70;27.62;100821.25;4934297;27;98602;-79
2023/07/11 08:30:15;;;;;;;;;;;;;;;45.27;27.33;100827.09;4950389;28;98976;-78
2023/07/11 08:32:43;;;;;;;;;;;;;;;45.86;27.46;100827.94;4933285;27;98430;-75
2023/07/11 08:35:09;;;;;;;;;;;;;;;46.36;27.11;100811.25;4933990;28;100151;-78
2023/07/11 08:37:36;;;;;;;;;;;;;;;45.97;27.66;100808.91;4934386;28;98162;-75
2023/07/11 08:40:04;;;;;;;;;;;;;;;46.97;27.28;100804.31;4928922;27;98050;-75
2023/07/11 08:42:41;;;;;;;;;;;;;;;47.22;27.27;100805.41;4947285;27;98129;-75
2023/07/11 08:45:18;;;;;;;;;;;;;;;47.52;27.12;100799.22;4941642;28;97983;-76
2023/07/11 08:47:52;;;;;;;;;;;;;;;47.92;27.09;100803.69;4950187;27;117481;-80
2023/07/11 08:50:21;;;;;;;;;;;;;;;48.50;26.86;100803.84;4946080;28;98004;-80
2023/07/11 08:52:50;;;;;;;;;;;;;;;48.85;26.50;100791.75;4944864;28;98180;-73
2023/07/11 08:55:27;;;;;;;;;;;;;;;49.04;26.53;100796.84;4945723;27;97824;-80
2023/07/11 08:58:09;;;;;;;;;;;;;;;49.27;26.60;100792.56;4931209;27;98199;-72
2023/07/11 09:00:36;;;;;;;;;;;;;;;49.53;26.42;100789.28;4930147;27;98166;-80
2023/07/11 09:03:32;;;;;;;;;;;;;;;49.84;26.47;100779.41;4924411;27;98182;-80
2023/07/11 09:06:06;;;;;;;;;;;;;;;50.20;26.34;100776.44;4928600;28;98582;-73
2023/07/11 09:08:32;;;;;;;;;;;;;;;50.41;26.44;100779.56;4942010;27;100157;-79
2023/07/11 09:11:18;;;;;;;;;;;;;;;50.63;25.83;100766.28;4927210;28;98512;-79
2023/07/11 09:14:12;;;;;;;;;;;;;;;50.72;26.02;100760.16;4959106;28;98047;-73
2023/07/11 09:16:58;;;;;;;;;;;;;;;50.66;25.91;100776.66;4966399;28;98035;-80
2023/07/11 09:19:46;;;;;;;;;;;;;;;50.35;26.00;100753.84;4927065;28;98288;-80
2023/07/11 09:22:15;;;;;;;;;;;;;;;50.50;26.17;100752.59;4958541;27;98177;-79
2023/07/11 09:24:55;;;;;;;;;;;;;;;49.24;26.80;100747.84;4961585;27;98294;-71
2023/07/11 09:27:34;;;;;;;;;;;;;;;47.86;27.50;100746.56;4941439;27;97930;-72
2023/07/11 09:30:02;;;;;;;;;;;;;;;47.17;28.12;100744.22;4932234;27;97989;-71
2023/07/11 09:32:34;;;;;;;;;;;;;;;46.91;28.07;100738.69;4931453;28;97859;-79
2023/07/11 09:35:22;;;;;;;;;;;;;;;46.88;28.29;100734.03;4948951;28;98332;-79
2023/07/11 09:37:51;;;;;;;;;;;;;;;47.28;27.64;100728.41;4947246;28;97971;-80
2023/07/11 09:40:21;;;;;;;;;;;;;;;47.92;27.29;100727.38;4926001;28;98239;-71
2023/07/11 09:42:55;;;;;;;;;;;;;;;48.59;26.85;100729.25;4947873;27;98276;-72
2023/07/11 09:45:27;;;;;;;;;;;;;;;49.12;26.40;100726.34;4945851;27;98534;-71
2023/07/11 09:48:18;;;;;;;;;;;;;;;49.65;25.87;100723.34;4945696;28;98336;-71
2023/07/11 09:50:59;;;;;;;;;;;;;;;49.87;26.02;100723.13;4929154;27;98068;-76
2023/07/11 09:53:31;;;;;;;;;;;;;;;49.38;26.34;100714.47;4962078;28;100041;-71
2023/07/11 09:55:59;;;;;;;;;;;;;;;49.74;26.04;100708.69;4933515;28;98245;-71
2023/07/11 09:58:26;;;;;;;;;;;;;;;50.17;25.75;100716.53;4930778;28;98077;-77
2023/07/11 10:00:54;;;;;;;;;;;;;;;50.53;25.73;100705.69;4923098;27;99270;-71
2023/07/11 10:03:21;;;;;;;;;;;;;;;51.04;25.32;100702.88;4928925;28;98137;-77
2023/07/11 10:05:50;;;;;;;;;;;;;;;51.24;25.18;100693.69;4938085;28;98578;-78
2023/07/11 10:08:19;;;;;;;;;;;;;;;51.44;25.14;100697.25;4928671;28;98087;-70
2023/07/11 10:10:50;;;;;;;;;;;;;;;51.47;25.02;100691.19;4949766;28;97890;-71
2023/07/11 10:13:18;;;;;;;;;;;;;;;51.01;25.75;100678.16;4958315;28;99182;-78
2023/07/11 10:15:53;;;;;;;;;;;;;;;50.79;25.86;100674.31;4930036;28;98070;-78
2023/07/11 10:18:30;;;;;;;;;;;;;;;50.88;25.79;100670.28;4928220;28;100135;-78
2023/07/11 10:21:07;;;;;;;;;;;;;;;50.96;25.48;100668.31;4932252;27;99452;-71
2023/07/11 10:23:33;;;;;;;;;;;;;;;51.12;25.72;100662.84;4941278;27;98098;-78
2023/07/11 10:26:26;;;;;;;;;;;;;;;51.08;25.86;100660.31;4925476;28;113881;-78
2023/07/11 10:29:16;;;;;;;;;;;;;;;51.02;25.89;100651.03;4951220;27;98490;-71
2023/07/11 10:32:08;;;;;;;;;;;;;;;50.82;26.21;100647.41;4946451;28;98674;-77
2023/07/11 10:34:49;;;;;;;;;;;;;;;50.75;26.06;100644.41;4944752;27;98522;-78
2023/07/11 10:37:26;;;;;;;;;;;;;;;50.91;26.01;100643.38;4929553;27;99229;-71
2023/07/11 10:39:59;;;;;;;;;;;;;;;50.94;25.98;100641.50;4948439;27;98044;-79
2023/07/11 10:42:35;;;;;;;;;;;;;;;50.99;25.80;100638.56;4931783;28;97995;-72
2023/07/11 10:45:10;;;;;;;;;;;;;;;51.10;26.02;100639.66;4964489;28;99768;-77
2023/07/11 10:47:43;;;;;;;;;;;;;;;50.87;25.79;100631.44;4941426;27;98134;-70
2023/07/11 10:50:27;;;;;;;;;;;;;;;50.69;25.98;100612.94;4928804;28;102136;-77
2023/07/11 10:52:55;;;;;;;;;;;;;;;50.62;25.48;100613.59;4943529;28;97888;-69
2023/07/11 10:55:26;;;;;;;;;;;;;;;50.64;25.79;100613.81;4926833;27;98005;-70
2023/07/11 10:57:53;;;;;;;;;;;;;;;50.51;25.73;100602.28;4948001;27;97801;-70
2023/07/11 11:00:36;;;;;;;;;;;;;;;50.40;26.02;100608.19;4927839;27;98509;-76
2023/07/11 11:03:14;;;;;;;;;;;;;;;50.43;25.61;100607.06;4948098;27;98017;-71
2023/07/11 11:06:11;;;;;;;;;;;;;;;50.10;26.04;100604.13;4942931;28;98281;-70
2023/07/11 11:08:40;;;;;;;;;;;;;;;49.83;25.96;100596.66;4940832;27;98105;-70
2023/07/11 11:11:25;;;;;;;;;;;;;;;49.74;26.06;100591.31;4955666;28;98544;-77
2023/07/11 11:13:58;;;;;;;;;;;;;;;49.54;25.95;100579.06;4928682;28;117029;-77
2023/07/11 11:16:32;;;;;;;;;;;;;;;49.40;26.12;100583.06;4957596;27;97992;-70
2023/07/11 11:19:16;;;;;;;;;;;;;;;49.37;26.16;100578.44;4947987;27;98037;-77
2023/07/11 11:21:42;;;;;;;;;;;;;;;49.17;26.13;100573.19;4974286;27;98030;-77
2023/07/11 11:24:30;;;;;;;;;;;;;;;48.76;26.17;100562.59;4957346;28;97969;-76
2023/07/11 11:26:56;;;;;;;;;;;;;;;48.41;26.50;100561.25;4942057;28;99271;-77
2023/07/11 11:29:53;;;;;;;;;;;;;;;48.13;26.60;100555.75;4960470;28;98265;-69
2023/07/11 11:32:46;;;;;;;;;;;;;;;47.99;26.62;100549.06;4957507;27;99114;-71
2023/07/11 11:35:39;;;;;;;;;;;;;;;47.93;26.48;100542.59;4947625;27;98635;-71
2023/07/11 11:38:25;;;;;;;;;;;;;;;47.43;26.79;100546.38;4960859;28;98285;-76
2023/07/11 11:40:58;;;;;;;;;;;;;;;46.79;27.53;100542.53;4938484;28;98031;-77
2023/07/11 11:43:26;;;;;;;;;;;;;;;46.32;27.63;100543.00;4922540;28;98189;-70
2023/07/11 11:45:52;;;;;;;;;;;;;;;45.94;27.72;100530.19;4923816;28;100346;-78
2023/07/11 11:48:22;;;;;;;;;;;;;;;45.69;27.87;100534.72;4925009;27;98114;-77
2023/07/11 11:50:48;;;;;;;;;;;;;;;45.51;27.87;100525.34;4941084;28;98004;-70
2023/07/11 11:53:22;;;;;;;;;;;;;;;45.30;28.03;100527.50;4926531;28;98826;-70
2023/07/11 11:56:05;;;;;;;;;;;;;;;45.22;28.18;100525.66;4944132;28;99614;-70
2023/07/11 11:58:32;;;;;;;;;;;;;;;45.12;28.11;100527.13;4962155;28;98294;-77
2023/07/11 12:00:58;;;;;;;;;;;;;;;45.04;28.12;100526.78;4929582;27;98103;-77
2023/07/11 12:03:29;;;;;;;;;;;;;;;44.98;28.01;100514.63;4930422;27;97807;-78
2023/07/11 12:05:57;;;;;;;;;;;;;;;44.93;28.11;100521.06;4930014;27;100253;-78
2023/07/11 12:08:32;;;;;;;;;;;;;;;44.79;28.13;100520.66;4927100;28;99478;-78
2023/07/11 12:11:07;;;;;;;;;;;;;;;44.76;28.05;100512.38;4920229;28;98337;-78
2023/07/11 12:13:34;;;;;;;;;;;;;;;44.79;28.04;100514.22;4940033;27;98154;-78
2023/07/11 12:16:23;;;;;;;;;;;;;;;44.78;28.08;100509.81;4927615;27;98087;-78
2023/07/11 12:18:56;;;;;;;;;;;;;;;44.73;27.99;100504.88;4954749;27;97968;-71
2023/07/11 12:21:41;;;;;;;;;;;;;;;44.63;28.25;100495.72;4947483;28;98286;-78
2023/07/11 12:24:32;;;;;;;;;;;;;;;44.57;28.24;100500.59;4938532;28;98553;-71
2023/07/11 12:27:08;;;;;;;;;;;;;;;44.50;28.26;100496.13;4947977;28;98285;-78
2023/07/11 12:29:48;;;;;;;;;;;;;;;44.16;28.13;100492.16;4944415;27;98538;-69
2023/07/11 12:32:32;;;;;;;;;;;;;;;43.69;28.21;100493.41;4958892;28;98091;-76
2023/07/11 12:35:04;;;;;;;;;;;;;;;43.45;28.49;100480.19;4959049;28;101129;-70
2023/07/11 12:37:42;;;;;;;;;;;;;;;43.21;28.71;100473.94;4972841;27;97984;-77
2023/07/11 12:40:16;;;;;;;;;;;;;;;43.08;28.72;100477.88;4941149;27;98069;-77
2023/07/11 12:42:53;;;;;;;;;;;;;;;43.18;28.46;100475.69;4946184;27;98012;-71
2023/07/11 12:45:21;;;;;;;;;;;;;;;43.24;28.60;100470.88;4946368;28;99477;-78
2023/07/11 12:47:49;;;;;;;;;;;;;;;43.30;28.51;100468.13;4943146;27;99187;-77
2023/07/11 12:50:21;;;;;;;;;;;;;;;43.22;28.63;100462.09;4931312;28;98949;-78